createdAt,value
2023-04-15T00:03:53.908Z,5.82
2023-04-15T00:08:58.153Z,4.57
2023-04-15T00:14:03.727Z,2.67
2023-04-15T00:19:07.674Z,2.90
2023-04-15T00:24:11.766Z,11.25
2023-04-15T00:29:17.191Z,3.33
2023-04-15T00:34:21.321Z,6.60
2023-04-15T00:39:25.270Z,6.85
2023-04-15T00:44:30.582Z,4.38
2023-04-15T00:49:34.551Z,3.20
2023-04-15T00:54:39.108Z,3.85
2023-04-15T00:59:44.501Z,2.97
2023-04-15T01:04:49.739Z,1.73
2023-04-15T01:09:54.129Z,1.90
2023-04-15T01:15:00.866Z,5.07
2023-04-15T01:20:05.993Z,4.85
2023-04-15T01:25:13.312Z,2.20
2023-04-15T01:30:18.662Z,2.63
2023-04-15T01:35:24.192Z,1.98
2023-04-15T01:40:28.785Z,1.58
2023-04-15T01:45:34.225Z,1.92
2023-04-15T01:50:41.452Z,4.63
2023-04-15T01:55:45.753Z,2.35
2023-04-15T02:00:53.746Z,1.60
2023-04-15T02:11:02.351Z,2.92
2023-04-15T02:16:17.225Z,5.72
2023-04-15T02:21:21.654Z,2.17
2023-04-15T02:26:26.182Z,2.00
2023-04-15T02:31:37.043Z,3.42
2023-04-15T02:36:41.104Z,3.75
2023-04-15T02:41:47.751Z,2.83
2023-04-15T02:46:54.966Z,2.67
2023-04-15T02:52:00.179Z,1.40
2023-04-15T02:57:06.873Z,2.40
2023-04-15T03:02:13.011Z,1.60
2023-04-15T03:07:17.245Z,2.42
2023-04-15T03:12:21.656Z,2.67
2023-04-15T03:17:28.507Z,4.53
2023-04-15T03:22:33.833Z,3.83
2023-04-15T03:27:37.884Z,1.67
2023-04-15T03:32:43.276Z,4.10
2023-04-15T03:37:49.248Z,1.90
2023-04-15T03:48:07.323Z,2.10
2023-04-15T03:53:20.495Z,2.88
2023-04-15T03:58:24.545Z,2.97
2023-04-15T04:03:30.324Z,2.22
2023-04-15T04:13:38.259Z,3.70
2023-04-15T04:18:43.504Z,5.38
2023-04-15T04:23:47.441Z,3.50
2023-04-15T04:28:51.695Z,5.65
2023-04-15T04:33:57.403Z,2.45
2023-04-15T04:44:05.833Z,3.85
2023-04-15T04:49:11.703Z,3.60
2023-04-15T04:59:19.679Z,3.40
2023-04-15T05:04:25.488Z,2.67
2023-04-15T05:09:32.280Z,6.68
2023-04-15T05:14:38.727Z,4.15
2023-04-15T05:19:44.083Z,3.60
2023-04-15T05:24:48.105Z,5.10
2023-04-15T05:29:52.134Z,5.68
2023-04-15T05:34:57.507Z,4.13
2023-04-15T05:40:01.573Z,4.45
2023-04-15T05:45:09.149Z,3.67
2023-04-15T05:50:14.466Z,5.18
2023-04-15T05:55:18.459Z,3.20
2023-04-15T06:00:22.495Z,7.13
2023-04-15T06:05:27.973Z,4.97
2023-04-15T06:10:36.475Z,3.75
2023-04-15T06:15:41.255Z,5.18
2023-04-15T06:20:46.528Z,3.78
2023-04-15T06:25:50.378Z,5.15
2023-04-15T06:30:54.740Z,4.70
2023-04-15T06:36:00.603Z,5.55
2023-04-15T06:41:05.446Z,5.15
2023-04-15T06:46:09.562Z,4.65
2023-04-15T06:51:15.130Z,7.32
2023-04-15T06:56:19.125Z,6.60
2023-04-15T07:01:23.354Z,5.72
2023-04-15T07:06:29.264Z,9.30
2023-04-15T07:11:33.421Z,3.35
2023-04-15T07:16:37.523Z,2.90
2023-04-15T07:21:43.052Z,2.80
2023-04-15T07:26:47.889Z,6.10
2023-04-15T07:31:51.888Z,9.32
2023-04-15T07:36:58.136Z,6.65
2023-04-15T07:42:02.562Z,6.80
2023-04-15T07:47:15.490Z,4.53
2023-04-15T07:52:21.766Z,5.85
2023-04-15T07:57:26.114Z,4.95
2023-04-15T08:02:30.700Z,7.00
2023-04-15T08:07:36.659Z,7.78
2023-04-15T08:17:44.752Z,8.15
2023-04-15T08:22:52.276Z,3.70
2023-04-15T08:27:57.682Z,7.15
2023-04-15T08:33:02.379Z,4.10
2023-04-15T08:38:07.860Z,4.82
2023-04-15T08:43:14.459Z,5.15
2023-04-15T08:48:19.289Z,4.50
2023-04-15T08:53:25.833Z,5.03
2023-04-15T08:58:30.477Z,4.70
2023-04-15T09:08:41.736Z,4.85
2023-04-15T09:13:49.024Z,10.48
2023-04-15T09:18:53.217Z,3.85
2023-04-15T09:24:00.738Z,7.03
2023-04-15T09:29:09.331Z,7.88
2023-04-15T09:34:13.669Z,4.97
2023-04-15T09:39:19.480Z,6.50
2023-04-15T09:44:24.684Z,2.83
2023-04-15T09:49:28.807Z,3.63
2023-04-15T09:54:39.692Z,5.25
2023-04-15T09:59:43.693Z,40.28
2023-04-15T10:04:51.047Z,3.83
2023-04-15T10:09:57.307Z,2.97
2023-04-15T10:15:06.147Z,2.78
2023-04-15T10:20:13.083Z,3.13
2023-04-15T10:25:19.569Z,3.08
2023-04-15T10:30:24.582Z,3.47
2023-04-15T10:35:30.794Z,5.07
2023-04-15T10:40:36.467Z,5.47
2023-04-15T10:45:46.711Z,3.97
2023-04-15T10:50:58.008Z,5.10
2023-04-15T10:56:06.298Z,3.90
2023-04-15T11:01:10.389Z,4.05
2023-04-15T11:06:14.468Z,5.25
2023-04-15T11:11:20.122Z,4.65
2023-04-15T11:21:29.317Z,2.63
2023-04-15T11:26:35.347Z,3.15
2023-04-15T11:31:39.444Z,4.32
2023-04-15T11:36:45.032Z,4.50
2023-04-15T11:41:50.668Z,3.97
2023-04-15T11:46:56.588Z,3.45
2023-04-15T11:52:00.808Z,3.65
2023-04-15T11:57:06.370Z,3.22
2023-04-15T12:02:14.371Z,3.80
2023-04-15T12:07:18.812Z,3.58
2023-04-15T12:12:30.918Z,3.92
2023-04-15T12:17:51.330Z,2.92
2023-04-15T12:23:07.248Z,12.27
2023-04-15T12:28:14.120Z,11.88
2023-04-15T12:33:18.786Z,7.35
2023-04-15T12:38:24.523Z,9.45
2023-04-15T12:43:30.488Z,12.60
2023-04-15T12:48:34.662Z,10.32
2023-04-15T12:53:38.782Z,7.00
2023-04-15T12:58:44.671Z,9.30
2023-04-15T13:03:50.726Z,8.75
2023-04-15T13:08:58.829Z,9.48
2023-04-15T13:14:06.479Z,7.65
2023-04-15T13:19:11.028Z,10.55
2023-04-15T13:24:15.053Z,8.50
2023-04-15T13:29:20.820Z,7.18
2023-04-15T13:39:29.652Z,3.08
2023-04-15T13:44:35.221Z,3.80
2023-04-15T13:49:39.475Z,6.10
2023-04-15T13:54:43.593Z,3.80
2023-04-15T13:59:49.440Z,5.75
2023-04-15T14:04:53.654Z,5.72
2023-04-15T14:09:57.896Z,4.47
2023-04-15T14:15:03.722Z,4.35
2023-04-15T14:20:09.938Z,3.92
2023-04-15T14:25:23.186Z,5.28
2023-04-15T14:30:36.470Z,5.28
2023-04-15T14:35:40.541Z,5.70
2023-04-15T14:40:46.062Z,6.22
2023-04-15T14:45:52.235Z,6.47
2023-04-15T14:50:56.484Z,5.28
2023-04-15T14:56:00.656Z,7.80
2023-04-15T15:01:07.516Z,9.00
2023-04-15T15:06:11.920Z,7.32
2023-04-15T15:11:17.116Z,9.55
2023-04-15T15:16:29.605Z,10.18
2023-04-15T15:21:33.976Z,7.38
2023-04-15T15:26:38.809Z,6.47
2023-04-15T15:31:45.085Z,6.53
2023-04-15T15:36:49.936Z,6.50
2023-04-15T15:41:54.676Z,9.20
2023-04-15T15:47:01.725Z,7.10
2023-04-15T15:52:07.716Z,9.13
2023-04-15T15:57:13.240Z,8.70
2023-04-15T16:02:27.062Z,7.22
2023-04-15T16:07:40.255Z,8.13
2023-04-15T16:12:45.592Z,9.87
2023-04-15T16:17:51.902Z,5.70
2023-04-15T16:22:58.488Z,6.32
2023-04-15T16:28:11.569Z,8.13
2023-04-15T16:33:24.840Z,7.53
2023-04-15T16:43:34.285Z,14.95
2023-04-15T16:48:40.196Z,10.27
2023-04-15T16:53:49.923Z,10.23
2023-04-15T16:58:55.037Z,8.68
2023-04-15T17:04:05.850Z,9.07
2023-04-15T17:09:10.565Z,12.20
2023-04-15T17:14:14.814Z,15.68
2023-04-15T17:19:23.609Z,19.38
2023-04-15T17:24:29.069Z,17.30
2023-04-15T17:29:34.254Z,17.95
2023-04-15T17:34:50.601Z,15.20
2023-04-15T17:39:55.591Z,17.00
2023-04-15T17:44:59.938Z,16.23
2023-04-15T17:50:06.107Z,14.57
2023-04-15T17:55:10.485Z,17.20
2023-04-15T18:00:16.798Z,16.50
2023-04-15T18:05:22.927Z,14.25
2023-04-15T18:10:27.428Z,45.25
2023-04-15T18:15:31.808Z,19.25
2023-04-15T18:20:37.391Z,18.52
2023-04-15T18:25:47.188Z,17.88
2023-04-15T18:30:51.616Z,14.30
2023-04-15T18:35:57.771Z,12.93
2023-04-15T18:41:02.600Z,17.30
2023-04-15T18:46:10.233Z,14.98
2023-04-15T18:51:17.149Z,24.95
2023-04-15T18:56:21.589Z,48.63
2023-04-15T19:01:26.590Z,50.65
2023-04-15T19:06:32.297Z,52.80
2023-04-15T19:11:36.622Z,47.78
2023-04-15T19:16:40.852Z,18.88
2023-04-15T19:21:50.174Z,19.88
2023-04-15T19:26:54.847Z,8.80
2023-04-15T19:31:59.440Z,9.80
2023-04-15T19:37:05.280Z,8.38
2023-04-15T19:42:10.315Z,10.32
2023-04-15T19:47:14.560Z,9.07
2023-04-15T19:52:20.172Z,8.32
2023-04-15T20:02:31.604Z,5.70
2023-04-15T20:07:37.657Z,9.05
2023-04-15T20:12:50.509Z,6.72
2023-04-15T20:17:57.661Z,20.77
2023-04-15T20:23:03.695Z,8.40
2023-04-15T20:33:16.989Z,12.80
2023-04-15T20:38:22.704Z,13.45
2023-04-15T20:48:31.298Z,15.40
2023-04-15T20:53:37.063Z,13.82
2023-04-15T20:58:41.485Z,15.60
2023-04-15T21:03:46.441Z,20.75
2023-04-15T21:08:52.684Z,49.50
2023-04-15T21:19:02.387Z,36.83
2023-04-15T21:24:08.829Z,23.95
2023-04-15T21:29:13.770Z,32.50
2023-04-15T21:34:18.826Z,31.42
2023-04-15T21:39:25.000Z,28.70
2023-04-15T21:44:29.420Z,26.77
2023-04-15T21:49:33.989Z,27.23
2023-04-15T21:54:39.982Z,29.10
2023-04-15T21:59:44.372Z,22.75
2023-04-15T22:04:48.706Z,25.02
2023-04-15T22:09:54.353Z,21.17
2023-04-15T22:14:58.550Z,21.75
2023-04-15T22:20:02.768Z,36.53
2023-04-15T22:25:09.835Z,24.80
2023-04-15T22:30:14.610Z,14.20
2023-04-15T22:35:18.949Z,14.37
2023-04-15T22:40:25.457Z,18.27
2023-04-15T22:45:29.615Z,13.57
2023-04-15T22:50:33.852Z,15.05
2023-04-15T22:55:39.609Z,13.07
2023-04-15T23:00:43.852Z,13.70
2023-04-15T23:05:48.056Z,9.68
2023-04-15T23:10:53.881Z,13.70
2023-04-15T23:15:58.080Z,10.15
2023-04-15T23:21:02.206Z,10.07
2023-04-15T23:26:07.714Z,5.75
2023-04-15T23:31:12.072Z,7.68
2023-04-15T23:36:16.352Z,11.82
2023-04-15T23:41:21.929Z,8.80
2023-04-15T23:46:26.264Z,7.22
2023-04-15T23:51:30.399Z,10.25
2023-04-15T23:56:36.004Z,8.07
